Terminal Aerodrome Forecast
Issued by NWS Tallahassee, FL

Home | Current Version | Previous Version | Text Only | Print | Product List | Glossary On
Versions: 1 2 3 4 5 6 7 8 9 10 11 12 13 14 15 16 17 18 19
000
FTUS42 KTAE 261120
TAFTLH
TAF
KTLH 261120Z 2612/2712 00000KT 6SM BR SKC
     FM261300 27010KT P6SM SCT025
     FM261800 27011G16KT P6SM SCT040
     FM270000 27004KT P6SM BKN250=

USA.gov is the U.S. government's official web portal to all federal, state and local government web resources and services.